Lod/Ben Gurion Airport, Israel

3:17 PM IST on December 11, 2016 (GMT +0200)
Ben-Shemen | | Change Station

Elev 197 ft 31.95 °N, 34.92 °E | Updated 2 minutes ago

Partly Cloudy
Partly Cloudy
66.9 °F
Feels Like 66.9 °F
N
4.5
Wind Variable Wind from NW
Gusts 6.9 mph

Today
High -- | Low -- °F
--% Chance of Precip.
Yesterday
High -- | Low -- °F
Precip. -- in
Pressure 30.15 in
Visibility 6.2 miles
Clouds Few 3500 ft
Dew Point 59 °F
Humidity 75%
Rainfall 0.00 in
Snow Depth Not available.
6:30 AM 4:36 PM
Waxing Gibbous, 91% visible
METAR LLBG 111250Z 29007KT 9999 FEW035 19/11 Q1021 NOSIG RMK BKN060
Pressure 30.15 in
Visibility 6.2 miles
Clouds Few 3500 ft
Dew Point 59 °F
Humidity 75%
Rainfall 0.00 in
Snow Depth Not available.
6:30 AM 4:36 PM
Waxing Gibbous, 91% visible
METAR LLBG 111250Z 29007KT 9999 FEW035 19/11 Q1021 NOSIG RMK BKN060

10-Day Weather Forecast

No radar image for this location.
×

Almanac

Astronomy

Dec. 11, 2016 Rise Set
Actual Time
Civil Twilight
Nautical Twilight
Astronomical Twilight
Moon
Length of Visible Light
Length of Day
Tomorrow will be .
, % of the Moon is Illuminated

Today's Extremes

Country Highs Country Lows

Community

WunderPhotos

Upload Photos

1,956,714 photos uploaded!

WunderBlog® & News

Nearby

Air Quality

  Air Quality AQ Index Pollutant
Not available.

Snow Depth

Station Depth Elevation

Earthquake Activity

City Distance Mag. Time & Date
Minimum magnitude displayed is 2.5.

Coastal Water Temperatures

Place Temperature

Stations

Nearby Weather Stations

Station Location Temp. Windchill Dew Point Humidity Wind Precip. Elev Updated Type